Time;durP1;ratioP1;P1;durP2;ratioP2;P2;SDS_P1;SDS_P2;PMS_P1;PMS_P2;Temp;Humidity;BMP_temperature;BMP_pressure;BME280_temperature;BME280_humidity;BME280_pressure;Samples;Min_cycle;Max_cycle;Signal;HPM_P1;HPM_P2
2024/04/12 05:16:15;;;;;;;23.43;21.00;;;14.10;99.90;;;;;;5419111;26;20519;-86
2024/04/12 05:18:47;;;;;;;23.00;20.50;;;14.10;99.90;;;;;;5388069;26;20539;-86
2024/04/12 05:21:17;;;;;;;22.57;20.27;;;14.10;99.90;;;;;;5417522;26;20530;-86
2024/04/12 05:23:47;;;;;;;23.33;20.97;;;14.10;99.90;;;;;;5420902;26;20464;-86
2024/04/12 05:26:17;;;;;;;23.80;21.30;;;14.10;99.90;;;;;;5387614;26;20471;-86
2024/04/12 05:28:45;;;;;;;25.20;22.23;;;14.10;99.90;;;;;;5387576;26;20470;-86
2024/04/12 05:31:19;;;;;;;21.60;19.43;;;14.10;99.90;;;;;;5387702;26;20510;-86
2024/04/12 05:33:49;;;;;;;23.43;21.07;;;14.20;99.90;;;;;;5417263;26;21066;-86
2024/04/12 05:36:20;;;;;;;22.87;20.47;;;14.20;99.90;;;;;;5388073;26;20531;-86
2024/04/12 05:38:49;;;;;;;22.73;20.30;;;14.20;99.90;;;;;;5420548;26;20503;-86
2024/04/12 05:41:20;;;;;;;22.97;20.60;;;14.20;99.90;;;;;;5386945;26;20455;-86
2024/04/12 05:43:47;;;;;;;21.47;19.37;;;14.20;99.90;;;;;;5387528;26;20956;-87
2024/04/12 05:46:22;;;;;;;21.40;19.30;;;14.20;99.90;;;;;;5387400;26;20458;-89
2024/04/12 05:48:49;;;;;;;22.87;20.47;;;14.20;99.90;;;;;;5387598;26;20474;-89
2024/04/12 05:51:20;;;;;;;22.07;19.87;;;14.20;99.90;;;;;;5388032;26;20458;-89
2024/04/12 14:56:08;;;;;;;7.73;6.93;;;20.70;99.90;;;;;;5441852;26;20556;-87
2024/04/12 14:58:39;;;;;;;7.67;6.33;;;20.70;99.90;;;;;;5423753;26;20496;-87
2024/04/12 15:01:10;;;;;;;7.57;6.77;;;20.70;99.90;;;;;;5425593;26;20453;-87
2024/04/12 15:48:11;;;;;;;6.67;4.63;;;20.80;99.90;;;;;;5442168;26;20540;-87
2024/04/12 15:50:43;;;;;;;4.90;4.23;;;20.80;99.90;;;;;;5445604;26;20457;-88
2024/04/12 15:53:25;;;;;;;8.10;4.87;;;20.80;99.90;;;;;;5445271;26;20544;-88
2024/04/12 16:10:42;;;;;;;5.40;4.63;;;20.80;99.90;;;;;;5445068;26;20449;-88
2024/04/12 16:12:42;;;;;;;5.50;3.90;;;20.70;99.90;;;;;;5440712;26;20457;-88
2024/04/12 16:15:12;;;;;;;6.40;4.37;;;20.70;99.90;;;;;;5444584;26;20494;-88
2024/04/12 16:17:43;;;;;;;7.47;4.50;;;20.80;99.90;;;;;;5429670;26;20449;-88
2024/04/12 16:20:17;;;;;;;5.17;3.47;;;20.70;99.90;;;;;;5434096;26;20518;-88
2024/04/12 16:22:44;;;;;;;4.90;3.80;;;20.70;99.90;;;;;;5434761;26;20495;-88
2024/04/12 16:25:16;;;;;;;5.30;3.60;;;20.70;99.90;;;;;;5434940;26;20832;-88
2024/04/12 16:27:43;;;;;;;4.97;4.47;;;20.70;99.90;;;;;;5433255;26;20548;-88
2024/04/12 16:30:14;;;;;;;6.03;3.83;;;20.70;99.90;;;;;;5434778;26;20469;-88
2024/04/12 16:32:41;;;;;;;6.17;4.40;;;20.60;99.90;;;;;;5434486;26;20465;-88
2024/04/12 16:35:12;;;;;;;5.20;4.23;;;20.60;99.90;;;;;;5435219;26;20513;-88
2024/04/12 16:37:42;;;;;;;5.90;4.07;;;20.60;99.90;;;;;;5435953;26;20457;-89
2024/04/12 16:40:14;;;;;;;7.73;3.90;;;20.60;99.90;;;;;;5435315;26;20513;-88
2024/04/12 16:42:42;;;;;;;5.40;3.40;;;20.60;99.90;;;;;;5436078;26;20539;-88
2024/04/12 16:45:12;;;;;;;5.47;3.77;;;20.60;99.90;;;;;;5436033;26;20461;-88
2024/04/12 16:47:39;;;;;;;5.87;3.90;;;20.60;99.90;;;;;;5436079;26;20899;-88
2024/04/12 16:50:09;;;;;;;6.30;3.60;;;20.60;99.90;;;;;;5435742;26;21009;-88
2024/04/12 16:52:37;;;;;;;4.00;3.40;;;20.60;99.90;;;;;;5434177;26;20540;-88
2024/04/12 16:55:10;;;;;;;4.27;3.47;;;20.60;99.90;;;;;;5433607;26;20509;-88
2024/04/12 16:57:37;;;;;;;4.80;3.47;;;20.60;99.90;;;;;;5427694;26;20465;-88
2024/04/12 17:00:08;;;;;;;3.90;3.13;;;20.60;99.90;;;;;;5393325;26;20853;-88
2024/04/12 17:02:36;;;;;;;3.90;3.13;;;20.50;99.90;;;;;;5393412;26;20564;-88
2024/04/12 17:05:07;;;;;;;6.23;4.23;;;20.50;99.90;;;;;;5392982;26;20515;-88
2024/04/12 17:07:34;;;;;;;3.80;3.23;;;20.40;99.90;;;;;;5393049;26;20539;-88
2024/04/12 17:10:05;;;;;;;3.93;3.30;;;20.40;99.90;;;;;;5393010;26;20551;-88
2024/04/12 17:12:35;;;;;;;5.03;3.40;;;20.40;99.90;;;;;;5393062;26;20805;-88
2024/04/12 17:15:08;;;;;;;3.50;3.20;;;20.40;99.90;;;;;;5392475;26;20550;-89
2024/04/12 17:17:36;;;;;;;5.90;3.63;;;20.30;99.90;;;;;;5393417;26;20459;-88
2024/04/12 17:20:09;;;;;;;3.03;1.97;;;20.30;99.90;;;;;;5393159;26;20471;-88
2024/04/12 17:22:38;;;;;;;4.40;1.93;;;20.20;99.90;;;;;;5393164;26;20894;-89
2024/04/12 17:25:10;;;;;;;3.20;1.90;;;20.10;99.90;;;;;;5393492;26;20588;-88
2024/04/12 17:27:41;;;;;;;6.30;2.60;;;20.00;99.90;;;;;;5394297;26;20458;-89
2024/04/12 17:30:12;;;;;;;4.50;2.17;;;19.90;99.90;;;;;;5392750;26;20534;-89
2024/04/12 17:32:43;;;;;;;4.27;2.20;;;19.80;99.90;;;;;;5392733;26;20514;-89
2024/04/12 17:35:14;;;;;;;4.67;1.60;;;19.70;99.90;;;;;;5392625;26;20521;-89
2024/04/12 17:37:42;;;;;;;4.03;2.00;;;19.60;99.90;;;;;;5391826;26;20501;-88
2024/04/12 17:40:14;;;;;;;2.43;1.33;;;19.50;99.90;;;;;;5392501;26;20479;-89
2024/04/12 17:42:45;;;;;;;2.80;1.60;;;19.40;99.90;;;;;;5397109;26;20450;-88
2024/04/12 17:45:17;;;;;;;2.97;1.57;;;19.30;99.90;;;;;;5411812;26;20501;-89
2024/04/12 17:47:48;;;;;;;3.97;1.90;;;19.30;99.90;;;;;;5442601;26;20400;-89
2024/04/12 17:50:16;;;;;;;4.13;1.80;;;19.20;99.90;;;;;;5411281;26;20471;-89
2024/04/12 17:52:49;;;;;;;4.40;1.90;;;19.10;99.90;;;;;;5398183;26;20528;-88
2024/04/12 17:55:16;;;;;;;6.30;1.90;;;19.00;99.90;;;;;;5392177;26;20499;-89
2024/04/12 17:57:50;;;;;;;4.47;2.07;;;19.00;99.90;;;;;;5391218;26;20463;-89
2024/04/12 18:00:19;;;;;;;4.30;2.00;;;18.90;99.90;;;;;;5392125;26;20470;-88
2024/04/12 18:02:49;;;;;;;3.07;1.60;;;18.80;99.90;;;;;;5392772;26;20454;-89
2024/04/12 18:05:17;;;;;;;4.77;1.83;;;18.70;99.90;;;;;;5391824;26;20455;-89
2024/04/12 18:07:47;;;;;;;4.27;2.00;;;18.70;99.90;;;;;;5392581;26;20458;-89
2024/04/12 18:10:15;;;;;;;4.63;2.00;;;18.60;99.90;;;;;;5392124;26;20451;-89
2024/04/12 18:12:46;;;;;;;6.30;2.00;;;18.60;99.90;;;;;;5391710;26;20466;-89
2024/04/12 18:15:17;;;;;;;4.30;2.50;;;18.50;99.90;;;;;;5392656;26;20462;-88
2024/04/12 18:17:47;;;;;;;4.10;1.70;;;18.50;99.90;;;;;;5396588;26;20491;-89
2024/04/12 18:20:17;;;;;;;4.37;1.93;;;18.40;99.90;;;;;;5391545;26;20463;-89
2024/04/12 18:22:48;;;;;;;6.03;2.47;;;18.40;99.90;;;;;;5390941;26;20510;-89
2024/04/12 18:25:16;;;;;;;5.40;2.40;;;18.40;99.90;;;;;;5390515;26;20510;-89
2024/04/12 18:27:46;;;;;;;3.73;2.10;;;18.30;99.90;;;;;;5390836;26;20450;-88
2024/04/12 18:30:16;;;;;;;5.90;2.17;;;18.30;99.90;;;;;;5390443;26;20518;-89
2024/04/12 18:32:47;;;;;;;5.20;2.33;;;18.20;99.90;;;;;;5391380;26;20431;-89
2024/04/12 18:35:15;;;;;;;3.73;2.23;;;18.20;99.90;;;;;;5405385;26;20486;-89
2024/04/12 18:46:06;;;;;;;6.10;2.80;;;18.00;99.90;;;;;;5389657;26;20515;-89
2024/04/12 18:48:36;;;;;;;4.50;3.27;;;17.90;99.90;;;;;;5389232;26;20487;-89
2024/04/12 18:51:07;;;;;;;4.13;2.73;;;17.90;99.90;;;;;;5392338;26;20499;-89
2024/04/12 18:53:37;;;;;;;4.93;2.63;;;17.90;99.90;;;;;;5393245;26;20508;-89
2024/04/12 18:56:05;;;;;;;4.80;2.40;;;17.80;99.90;;;;;;5392698;26;20423;-89
2024/04/12 18:58:38;;;;;;;4.53;2.63;;;17.80;99.90;;;;;;5404961;26;21090;-89
2024/04/12 19:01:08;;;;;;;4.10;3.23;;;17.70;99.90;;;;;;5422617;26;20501;-89
2024/04/12 19:03:38;;;;;;;4.43;2.80;;;17.70;99.90;;;;;;5422239;26;20517;-90
2024/04/12 19:06:06;;;;;;;3.63;2.30;;;17.70;99.90;;;;;;5422164;26;21058;-90
2024/04/12 19:08:36;;;;;;;5.43;2.53;;;17.60;99.90;;;;;;5421748;26;20458;-90
2024/04/12 19:11:06;;;;;;;5.07;2.30;;;17.50;99.90;;;;;;5422261;26;20427;-90
2024/04/12 19:13:37;;;;;;;8.67;4.43;;;17.50;99.90;;;;;;5421986;26;20559;-90
2024/04/12 19:16:08;;;;;;;9.13;2.80;;;17.50;99.90;;;;;;5421739;26;20422;-90
2024/04/12 19:18:40;;;;;;;6.90;2.83;;;17.40;99.90;;;;;;5422053;26;20447;-89
2024/04/12 19:21:08;;;;;;;7.67;4.23;;;17.40;99.90;;;;;;5420950;26;20471;-90
2024/04/12 19:23:39;;;;;;;4.13;2.87;;;17.30;99.90;;;;;;5422413;26;20511;-90
2024/04/12 19:26:07;;;;;;;4.47;2.40;;;17.20;99.90;;;;;;5422201;26;20431;-90
2024/04/12 19:28:37;;;;;;;3.80;2.40;;;17.20;99.90;;;;;;5421817;26;20446;-90
2024/04/12 19:31:08;;;;;;;4.97;2.20;;;17.10;99.90;;;;;;5421638;26;20487;-90
2024/04/12 19:33:38;;;;;;;3.97;2.10;;;17.10;99.90;;;;;;5421426;26;20459;-89
2024/04/12 19:36:07;;;;;;;7.03;2.73;;;17.00;99.90;;;;;;5421235;26;20515;-90
2024/04/12 19:38:37;;;;;;;4.77;2.50;;;17.00;99.90;;;;;;5421916;26;20777;-90
2024/04/12 19:41:06;;;;;;;4.67;2.47;;;16.90;99.90;;;;;;5421663;26;20422;-90
2024/04/12 19:43:37;;;;;;;6.43;3.20;;;16.90;99.90;;;;;;5421978;26;20816;-90
2024/04/12 19:46:07;;;;;;;4.60;2.73;;;16.80;99.90;;;;;;5421781;26;20480;-89
2024/04/12 19:48:39;;;;;;;5.87;2.97;;;16.80;99.90;;;;;;5421604;26;20455;-89
2024/04/12 19:51:07;;;;;;;6.47;2.63;;;16.70;99.90;;;;;;5422009;26;20467;-90
2024/04/12 19:53:39;;;;;;;5.70;2.90;;;16.70;99.90;;;;;;5422111;26;20569;-90
2024/04/12 19:56:07;;;;;;;4.93;3.10;;;16.60;99.90;;;;;;5421885;26;20501;-90
2024/04/12 19:58:39;;;;;;;5.10;2.77;;;16.60;99.90;;;;;;5422033;26;20509;-90
2024/04/12 20:01:10;;;;;;;5.10;3.08;;;16.50;99.90;;;;;;5418228;26;20364;-90
2024/04/12 20:03:42;;;;;;;8.73;3.50;;;16.60;99.90;;;;;;5422520;26;20221;-89
2024/04/12 20:06:10;;;;;;;6.17;3.40;;;16.50;99.90;;;;;;5421067;26;20502;-89
2024/04/12 20:08:41;;;;;;;5.50;3.10;;;16.50;99.90;;;;;;5421395;26;20482;-90
2024/04/12 20:11:08;;;;;;;5.13;3.07;;;16.40;99.90;;;;;;5424318;26;20448;-89
2024/04/12 20:13:40;;;;;;;6.47;3.00;;;16.40;99.90;;;;;;5421079;26;20470;-90
2024/04/12 20:16:10;;;;;;;7.27;3.40;;;16.40;99.90;;;;;;5421466;26;20434;-89
2024/04/12 20:18:43;;;;;;;5.67;3.70;;;16.30;99.90;;;;;;5422501;26;20515;-89
2024/04/12 20:21:13;;;;;;;9.17;7.53;;;16.30;99.90;;;;;;5422810;26;20447;-90
2024/04/12 20:23:44;;;;;;;9.80;4.23;;;16.30;99.90;;;;;;5422491;26;20463;-90
2024/04/12 20:26:13;;;;;;;5.83;3.77;;;16.20;99.90;;;;;;5422160;26;20503;-90
2024/04/12 20:28:46;;;;;;;6.30;3.30;;;16.20;99.90;;;;;;5421210;26;20526;-89
2024/04/12 20:31:23;;;;;;;7.10;3.70;;;16.20;99.90;;;;;;5421213;26;20455;-90
2024/04/12 20:34:09;;;;;;;6.23;3.37;;;16.10;99.90;;;;;;5421029;26;20485;-90
2024/04/12 20:36:38;;;;;;;7.57;4.13;;;16.10;99.90;;;;;;5421752;26;20570;-90
2024/04/12 20:39:11;;;;;;;6.30;4.10;;;16.00;99.90;;;;;;5423118;26;20864;-90
2024/04/12 20:41:41;;;;;;;5.13;3.67;;;16.00;99.90;;;;;;5421235;26;20927;-90
2024/04/12 20:44:13;;;;;;;7.07;3.90;;;16.00;99.90;;;;;;5422575;26;20458;-90
2024/04/12 20:46:44;;;;;;;5.53;3.87;;;15.90;99.90;;;;;;5422220;26;20471;-89
2024/04/12 20:49:14;;;;;;;6.43;4.13;;;15.90;99.90;;;;;;5421760;26;20514;-90
2024/04/12 20:51:42;;;;;;;4.80;3.97;;;15.90;99.90;;;;;;5421859;26;20507;-90
2024/04/12 20:54:14;;;;;;;8.13;4.73;;;15.80;99.90;;;;;;5421006;26;20467;-90
2024/04/12 20:56:44;;;;;;;5.70;3.97;;;15.80;99.90;;;;;;5421134;26;20507;-90
2024/04/12 20:59:15;;;;;;;6.50;4.33;;;15.70;99.90;;;;;;5422318;26;20474;-90
2024/04/12 21:01:46;;;;;;;10.80;4.50;;;15.70;99.90;;;;;;5422084;26;20506;-90
2024/04/12 21:04:16;;;;;;;6.90;4.50;;;15.70;99.90;;;;;;5420920;26;20463;-90
2024/04/12 21:06:46;;;;;;;7.80;4.70;;;15.60;99.90;;;;;;5421241;26;20458;-90
2024/04/12 21:09:16;;;;;;;10.33;8.40;;;15.60;99.90;;;;;;5420653;26;20511;-90
2024/04/12 21:11:45;;;;;;;8.20;6.10;;;15.50;99.90;;;;;;5420691;26;20536;-90
2024/04/12 21:14:16;;;;;;;7.67;6.57;;;15.50;99.90;;;;;;5421785;26;20838;-89
2024/04/12 21:16:46;;;;;;;9.67;6.23;;;15.50;99.90;;;;;;5421206;26;20475;-89
2024/04/12 21:19:16;;;;;;;7.43;6.00;;;15.40;99.90;;;;;;5421493;26;20526;-89
2024/04/12 21:21:44;;;;;;;6.97;6.23;;;15.40;99.90;;;;;;5425061;26;20416;-89
2024/04/12 21:24:15;;;;;;;6.90;6.20;;;15.40;99.90;;;;;;5421567;26;20536;-89
2024/04/12 21:26:43;;;;;;;8.30;6.27;;;15.30;99.90;;;;;;5421778;26;20451;-90
2024/04/12 21:29:13;;;;;;;10.80;8.13;;;15.30;99.90;;;;;;5422376;26;20502;-89
2024/04/12 21:31:41;;;;;;;9.00;7.43;;;15.20;99.90;;;;;;5421770;26;20876;-90
2024/04/12 21:34:13;;;;;;;9.10;8.23;;;15.20;99.90;;;;;;5422266;26;20510;-90
2024/04/12 21:36:41;;;;;;;7.73;6.60;;;15.20;99.90;;;;;;5423011;26;20482;-90
2024/04/12 21:39:12;;;;;;;7.90;7.00;;;15.10;99.90;;;;;;5421650;26;20577;-90
2024/04/12 21:41:39;;;;;;;9.00;6.70;;;15.10;99.90;;;;;;5420754;26;20963;-90
2024/04/12 21:44:20;;;;;;;;;;;;;;;;;;;;;
2024/04/12 21:47:07;;;;;;;7.23;5.83;;;15.00;99.90;;;;;;5423179;26;20467;-91
2024/04/12 21:49:41;;;;;;;7.70;5.80;;;15.00;99.90;;;;;;5433114;26;20515;-91
2024/04/12 21:52:08;;;;;;;6.70;5.47;;;15.00;99.90;;;;;;5422335;26;20434;-90
2024/04/12 21:54:40;;;;;;;5.83;4.67;;;14.90;99.90;;;;;;5421842;26;21015;-90
2024/04/12 21:57:07;;;;;;;7.33;5.50;;;14.90;99.90;;;;;;5420716;26;20451;-91
2024/04/12 21:59:39;;;;;;;9.67;5.50;;;14.90;99.90;;;;;;5420925;26;20542;-91
2024/04/12 22:02:08;;;;;;;7.63;5.30;;;14.90;99.90;;;;;;5420492;26;20535;-89
2024/04/12 22:04:41;;;;;;;7.37;5.67;;;14.80;99.90;;;;;;5420138;26;20506;-90
2024/04/12 22:07:09;;;;;;;7.13;5.10;;;14.80;99.90;;;;;;5420888;26;20514;-90
2024/04/12 22:09:41;;;;;;;7.80;5.37;;;14.80;99.90;;;;;;5419773;26;20578;-90
2024/04/12 22:12:11;;;;;;;9.93;5.97;;;14.70;99.90;;;;;;5420052;26;20567;-90
2024/04/12 22:14:47;;;;;;;14.13;5.70;;;14.70;99.90;;;;;;5421196;26;20458;-90
2024/04/12 22:17:22;;;;;;;6.83;4.97;;;14.70;99.90;;;;;;5420501;26;20514;-90
2024/04/12 22:19:55;;;;;;;8.37;5.03;;;14.70;99.90;;;;;;5419957;26;20991;-89
2024/04/12 22:22:26;;;;;;;7.57;5.47;;;14.60;99.90;;;;;;5420222;26;20497;-89
2024/04/12 22:25:01;;;;;;;7.47;5.90;;;14.60;99.90;;;;;;5420940;26;20982;-90
2024/04/12 22:27:29;;;;;;;7.27;6.17;;;14.60;99.90;;;;;;5422695;26;20795;-89
2024/04/12 22:30:00;;;;;;;9.83;5.77;;;14.50;99.90;;;;;;5424686;26;20539;-89
2024/04/12 22:32:31;;;;;;;7.80;5.10;;;14.50;99.90;;;;;;5423196;26;20463;-89
2024/04/12 22:35:03;;;;;;;6.00;5.33;;;14.50;99.90;;;;;;5422199;26;20563;-89
2024/04/12 22:37:37;;;;;;;9.55;5.20;;;14.50;99.90;;;;;;5421592;26;20352;-89
2024/04/12 22:40:06;;;;;;;9.10;4.93;;;14.50;99.90;;;;;;5422156;26;20237;-89
2024/04/12 22:42:36;;;;;;;8.43;5.47;;;14.50;99.90;;;;;;5422350;26;20471;-89
2024/04/12 22:45:05;;;;;;;6.13;4.90;;;14.50;99.90;;;;;;5422671;26;20447;-89
2024/04/12 22:47:36;;;;;;;7.80;5.63;;;14.50;99.90;;;;;;5422702;26;20503;-90
2024/04/12 22:50:08;;;;;;;6.53;5.40;;;14.40;99.90;;;;;;5422468;26;20511;-90
2024/04/12 22:52:42;;;;;;;10.00;5.70;;;14.40;99.90;;;;;;5422600;26;20538;-89
2024/04/12 22:55:10;;;;;;;9.37;5.47;;;14.40;99.90;;;;;;5423319;26;20462;-89
2024/04/12 22:57:43;;;;;;;7.13;5.30;;;14.40;99.90;;;;;;5422918;26;20560;-89
2024/04/12 23:00:12;;;;;;;8.03;5.33;;;14.40;99.90;;;;;;5394366;26;20466;-89
2024/04/12 23:02:42;;;;;;;8.40;5.03;;;14.40;99.90;;;;;;5393505;26;20511;-89
2024/04/12 23:05:12;;;;;;;6.80;4.83;;;14.40;99.90;;;;;;5393751;26;20477;-89
2024/04/12 23:07:43;;;;;;;5.67;4.60;;;14.40;99.90;;;;;;5393720;26;20518;-89
2024/04/12 23:10:14;;;;;;;5.93;4.80;;;14.40;99.90;;;;;;5394392;26;20519;-89
2024/04/12 23:12:44;;;;;;;6.73;4.53;;;14.30;99.90;;;;;;5396918;26;20623;-90
2024/04/12 23:15:13;;;;;;;7.00;4.67;;;14.30;99.90;;;;;;5413898;26;20450;-89
2024/04/12 23:17:43;;;;;;;6.60;4.77;;;14.30;99.90;;;;;;5413859;26;20502;-90
2024/04/12 23:20:14;;;;;;;6.30;4.47;;;14.30;99.90;;;;;;5413263;26;20458;-91
2024/04/12 23:22:44;;;;;;;6.30;5.07;;;14.30;99.90;;;;;;5397158;26;20462;-90
2024/04/12 23:25:11;;;;;;;13.80;6.00;;;14.30;99.90;;;;;;5394002;26;20789;-89
2024/04/12 23:27:42;;;;;;;7.07;4.70;;;14.30;99.90;;;;;;5394564;26;20513;-89
2024/04/12 23:30:10;;;;;;;6.07;4.47;;;14.30;99.90;;;;;;5393658;26;20463;-89
2024/04/12 23:32:40;;;;;;;8.93;5.27;;;14.30;99.90;;;;;;5394189;26;20502;-89
2024/04/12 23:35:09;;;;;;;7.63;4.90;;;14.20;99.90;;;;;;5391703;26;20514;-89
2024/04/12 23:37:42;;;;;;;6.17;4.80;;;14.30;99.90;;;;;;5423776;26;20446;-89
2024/04/12 23:40:10;;;;;;;6.90;4.37;;;14.20;99.90;;;;;;5393338;26;20511;-89
2024/04/12 23:42:42;;;;;;;6.37;4.30;;;14.20;99.90;;;;;;5393891;26;21022;-89
2024/04/12 23:45:09;;;;;;;7.60;5.00;;;14.20;99.90;;;;;;5393362;26;20825;-89
2024/04/12 23:47:40;;;;;;;5.73;4.70;;;14.20;99.90;;;;;;5393681;26;20568;-90
2024/04/12 23:50:10;;;;;;;6.70;4.87;;;14.20;99.90;;;;;;5394062;26;20506;-89
2024/04/12 23:52:45;;;;;;;6.13;4.60;;;14.20;99.90;;;;;;5393517;26;20506;-89
2024/04/12 23:55:12;;;;;;;7.53;4.93;;;14.20;99.90;;;;;;5393280;26;20566;-89
2024/04/12 23:57:42;;;;;;;6.73;5.20;;;14.20;99.90;;;;;;5424624;26;21015;-89
